< < Back
Terminal Aerodrome Forecast


Current Version              Previous Versions:   1  2  3  4  5  6  7  8  9  

Terminal Aerodrome Forecast

720
FTUS44 KMOB 311100
TAFPNS
TAF
KPNS 311120Z 3112/0112 02003KT P6SM SKC
     FM311600 09004KT P6SM SCT120 BKN250
     FM010300 VRB02KT P6SM BKN250=



Latest METAR

340
SAUS70 KWBC 311300 RRK
MTRPNS
METAR KPNS 311253Z 36006KT 10SM CLR 22/16 A3003 RMK AO2 SLP168
T02170161


USA.gov is the U.S. government's official web portal to all federal, state and local government web resources and services.